Limerick, ME (04048)

7:58 AM EST on January 30, 2015 (GMT -0500)
North Waterboro | Change Station
CLOSE
Current Station
Personal Weather Station
Location: Maine, ME
Elevation: 617 ft
Nearby Weather Stations
Active Advisory: Winter Storm Warning Active Notice: Public Information Statement

Elev 617 ft 43.64 °N, 70.71 °W | Updated 15 minutes ago

Snow
Snow
26.1 °F
Feels Like 26 °F
N
0.0
Wind Variable Wind from WNW
Gusts 0.0 mph

Today
High -- | Low -- °F
--% Chance of Precip.
Yesterday
High -- | Low -- °F
Precip. -- in
7:02 AM 4:51 PM
Waxing Gibbous, 82% visible
Pressure 29.83 in
Visibility 2.5 miles
Clouds Overcast 800 ft
Windchill 26 °F
Dew Point 24 °F
Humidity 92%
Rainfall 0.00 in
Snow Depth Not available.
UV 0.0 out of 12
Pollen .10 out of 12
Air Quality Not available.
Flu Activity Not available.
METAR KSFM 301255Z AUTO 00000KT 2 1/2SM OVC008 M03/M07 A2983 RMK AO1 P0002

More Conditions Fewer Conditions

Pressure 29.83 in
Visibility 2.5 miles
Clouds Overcast 800 ft
Windchill 26 °F
Dew Point 24 °F
Humidity 92%
Rainfall 0.00 in
Snow Depth Not available.
UV 0.0 out of 12
Pollen .10 out of 12
Air Quality Not available.
Flu Activity Not available.
METAR KSFM 301255Z AUTO 00000KT 2 1/2SM OVC008 M03/M07 A2983 RMK AO1 P0002

More Conditions Fewer Conditions

10-Day Weather Forecast

Almanac

Astronomy

Jan. 30, 2015 Rise Set
Actual Time
Civil Twilight
Nautical Twilight
Astronomical Twilight
Moon
Length of Visible Light
Length of Day
Tomorrow will be .
, % of the Moon is Illuminated

Today's Extremes

State Highs State Lows

Community

WunderPhotos

Upload Photos

1,791,740 photos uploaded!

WunderBlogs® & News

Nearby

Air Quality

  Air Quality AQ Index Pollutant
Not available.

Snow Depth

Station Depth Elevation

Earthquake Activity

City Distance Mag. Time & Date
Minimum magnitude displayed is 2.5.

Coastal Water Temperatures

Place Temperature

Nearby Weather Stations